Date,TemperatureHighF,TemperatureAvgF,TemperatureLowF,DewpointHighF,DewpointAvgF,DewpointLowF,HumidityHigh,HumidityAvg,HumidityLow,PressureMaxIn,PressureMinIn,WindSpeedMaxMPH,WindSpeedAvgMPH,GustSpeedMaxMPH,PrecipitationSumIn
2013-1-1,27.0,26.6,25.0,27.0,26.6,25.0,99,99,99,0.00,40.00,7,4,10,0.00
2013-1-2,18.0,10.6,2.0,14.0,3.6,-3.0,96,76,46,0.00,40.00,3,1,6,0.00
2013-1-3,29.0,17.3,4.0,21.0,11.4,1.0,92,79,59,0.00,40.00,11,4,17,0.00
2013-1-4,30.0,21.9,15.0,22.0,16.6,10.0,96,80,62,0.00,40.00,14,6,21,0.00
2013-1-5,35.0,24.5,12.0,25.0,20.0,12.0,99,84,58,0.00,40.00,11,5,16,0.00
2013-1-6,31.0,27.4,22.0,29.0,24.0,18.0,95,87,80,0.00,40.00,17,10,27,0.00
2013-1-7,33.0,21.7,9.0,23.0,17.8,9.0,99,86,62,0.00,40.00,9,3,12,0.00
2013-1-8,42.0,30.1,20.0,29.0,24.1,17.0,94,79,55,0.00,40.00,8,4,14,0.00
2013-1-9,46.0,36.7,27.0,39.0,32.4,26.0,99,85,71,0.00,40.00,12,5,17,0.00
2013-1-10,41.0,32.5,24.0,38.0,29.9,24.0,99,90,66,0.00,40.00,17,8,25,0.00
2013-1-11,54.0,49.0,41.0,51.0,45.8,38.0,99,89,75,0.00,40.00,17,10,28,0.00
2013-1-12,60.0,53.4,47.0,59.0,51.0,43.0,99,92,76,0.00,40.00,17,8,30,0.00
2013-1-13,60.0,40.3,24.0,58.0,39.6,20.0,99,97,85,0.00,40.00,24,9,39,0.00
2013-1-14,24.0,19.5,17.0,20.0,15.7,13.0,90,85,78,0.00,40.00,14,7,21,0.00
2013-1-15,29.0,22.9,18.0,22.0,17.7,15.0,92,81,64,0.00,40.00,12,8,20,0.00
2013-1-16,31.0,27.0,26.0,24.0,21.8,20.0,93,82,65,0.00,40.00,11,6,15,0.00
2013-1-17,37.0,28.5,22.0,28.0,21.5,13.0,92,76,59,0.00,40.00,16,6,23,0.00
2013-1-18,35.0,25.5,15.0,22.0,15.7,12.0,95,69,46,0.00,40.00,16,6,27,0.00
2013-1-19,48.0,37.4,30.0,29.0,24.3,21.0,73,60,43,0.00,40.00,24,14,35,0.00
2013-1-20,39.0,27.0,21.0,33.0,15.2,9.0,89,62,48,0.00,40.00,21,10,33,0.00
2013-1-21,21.0,15.7,8.0,14.0,6.6,-3.0,85,68,52,0.00,40.00,20,11,33,0.00
2013-1-22,15.0,9.0,3.0,0.0,-1.8,-3.0,76,62,47,0.00,40.00,14,2,24,0.00
2013-1-23,19.0,13.9,7.0,10.0,3.6,-2.0,75,63,56,0.00,40.00,11,-10,15,0.00
2013-1-24,18.0,14.3,10.0,10.0,6.4,4.0,82,71,59,0.00,40.00,14,-21,23,0.00
2013-6-12,86.0,81.5,76.0,72.0,70.4,69.0,86,70,60,0.00,40.00,16,9,24,0.00
2013-6-13,78.0,71.7,58.0,71.0,62.1,50.0,99,74,46,0.00,40.00,17,1,28,0.00
2013-6-14,80.0,65.7,50.0,59.0,54.3,49.0,99,70,42,0.00,40.00,8,4,14,0.00
2013-6-15,78.0,63.3,55.0,63.0,55.9,53.0,97,79,48,0.00,40.00,7,3,12,0.00
2013-6-16,72.0,67.2,63.0,67.0,63.8,60.0,99,89,73,0.00,40.00,13,6,25,0.00
2013-6-17,86.0,71.4,63.0,71.0,64.5,60.0,99,82,45,0.00,40.00,9,3,18,0.00
2013-6-18,85.0,68.0,60.0,65.0,61.8,60.0,98,82,47,0.00,40.00,10,3,18,0.00
2013-6-19,79.0,66.2,54.0,61.0,55.4,52.0,98,72,45,0.00,40.00,11,6,15,0.00
2013-6-20,83.0,68.9,56.0,59.0,55.6,53.0,93,65,38,0.00,40.00,7,4,12,0.00
2013-6-22,79.0,78.8,78.0,69.0,68.8,68.0,73,71,71,0.00,40.00,8,7,13,0.00
2013-6-25,87.0,81.7,75.0,72.0,70.2,64.0,88,69,56,0.00,40.00,18,8,30,0.00
2013-6-26,79.0,67.3,62.0,72.0,65.2,62.0,99,94,73,0.00,40.00,18,5,30,0.00
2013-6-27,85.0,71.5,63.0,71.0,65.7,63.0,99,84,54,0.00,40.00,13,6,21,0.00
2013-6-28,81.0,69.8,62.0,68.0,62.3,57.0,96,79,45,0.00,40.00,17,6,29,0.00
2013-6-29,75.0,64.6,56.0,67.0,61.7,56.0,99,91,64,0.00,40.00,9,3,14,0.00
2013-6-30,75.0,64.3,59.0,66.0,61.7,59.0,99,92,64,0.00,40.00,15,4,22,0.00
2013-7-1,71.0,61.9,58.0,67.0,60.3,57.0,99,95,79,0.00,40.00,14,7,23,0.00
2013-7-2,77.0,66.7,59.0,66.0,60.8,59.0,99,84,57,0.00,40.00,14,6,23,0.00
2013-7-3,78.0,66.2,58.0,65.0,61.4,58.0,99,86,58,0.00,40.00,11,3,16,0.00
2013-7-4,70.0,65.9,62.0,67.0,64.6,61.0,99,96,85,0.00,40.00,9,3,16,0.00
2013-7-5,76.0,67.1,62.0,67.0,63.5,62.0,99,89,64,0.00,40.00,6,2,9,0.00
2013-7-6,69.0,65.3,63.0,67.0,64.5,62.0,99,97,85,0.00,40.00,10,3,14,0.00
2013-7-7,79.0,68.2,60.0,67.0,62.9,59.0,99,85,61,0.00,40.00,9,4,12,0.00
2013-7-8,82.0,69.1,62.0,72.0,64.3,-99.9,99,89,68,0.00,40.00,10,4,16,0.00
2013-7-9,84.0,76.0,69.0,74.0,71.1,68.0,99,86,69,0.00,40.00,11,5,19,0.00
2013-7-10,84.0,72.7,69.0,75.0,64.9,-99.9,99,83,59,0.00,40.00,12,4,26,0.00
2013-7-11,75.0,68.3,61.0,68.0,59.7,54.0,99,76,54,0.00,40.00,12,6,21,0.00
2013-7-12,76.0,66.9,53.0,60.0,55.0,53.0,99,69,47,0.00,40.00,10,5,14,0.00
2013-7-13,81.0,71.5,56.0,64.0,60.5,56.0,99,71,52,0.00,40.00,12,7,17,0.00
2013-7-14,89.0,74.9,63.0,73.0,66.3,62.0,98,77,52,0.00,40.00,14,5,19,0.00
2013-7-15,88.0,75.2,67.0,72.0,67.8,65.0,99,81,50,0.00,40.00,9,3,17,0.00
2013-7-16,91.0,81.3,65.0,73.0,68.3,64.0,99,68,47,0.00,40.00,6,2,7,0.00
2013-7-17,91.0,79.2,66.0,74.0,69.8,65.0,99,76,50,0.00,40.00,7,3,11,0.00
2013-7-18,90.0,80.6,67.0,73.0,69.0,67.0,99,72,49,0.00,40.00,6,2,9,0.00
2013-7-19,86.0,78.2,69.0,74.0,71.5,69.0,99,81,62,0.00,40.00,13,5,22,0.00
2013-7-20,84.0,70.3,64.0,72.0,66.3,-99.9,99,90,66,0.00,40.00,13,5,23,0.00
2013-7-21,84.0,71.5,61.0,70.0,66.4,61.0,99,86,58,0.00,40.00,5,2,7,0.00
2013-7-22,78.0,69.7,65.0,70.0,66.9,65.0,99,91,67,0.00,40.00,10,4,19,0.00
2013-7-23,83.0,72.9,63.0,74.0,67.6,61.0,99,85,59,0.00,40.00,12,6,23,0.00
2013-7-24,73.0,64.0,51.0,58.0,54.3,51.0,99,73,53,0.00,40.00,9,6,16,0.00
2013-7-25,75.0,62.2,48.0,54.0,52.0,48.0,99,73,45,0.00,40.00,8,-13,12,0.00
2013-7-26,76.0,68.1,50.0,61.0,55.9,49.0,99,67,48,0.00,40.00,9,-55,14,0.00
2013-7-27,73.0,65.1,57.0,62.0,56.0,50.0,99,75,48,0.00,40.00,13,7,22,0.00
2013-7-28,68.0,58.1,44.0,54.0,47.8,44.0,99,72,47,0.00,40.00,12,6,21,0.00
2013-7-29,74.0,60.2,48.0,55.0,51.8,48.0,99,78,46,0.00,40.00,12,3,21,0.00
2013-7-30,74.0,66.7,50.0,63.0,56.9,50.0,99,73,53,0.00,40.00,7,3,10,0.00
2013-7-31,72.0,65.5,61.0,67.0,62.7,60.0,99,91,77,0.00,40.00,6,3,12,0.00
2013-8-1,78.0,69.8,60.0,64.0,59.1,51.0,99,73,42,0.00,40.00,13,5,22,0.00
2013-8-2,79.0,67.0,52.0,65.0,59.0,52.0,99,77,52,0.00,40.00,12,5,22,0.00
2013-8-3,81.0,71.6,62.0,68.0,64.0,60.0,99,79,52,0.00,40.00,7,4,14,0.00
2013-8-4,76.0,66.2,49.0,56.0,52.1,49.0,99,63,44,0.00,40.00,10,5,18,0.00
2013-8-5,78.0,65.5,50.0,58.0,53.2,49.0,99,68,43,0.00,40.00,8,3,14,0.00
2013-8-6,79.0,69.0,62.0,69.0,61.5,55.0,97,77,66,0.00,40.00,7,3,11,0.00
2013-8-7,81.0,71.9,65.0,72.0,68.6,65.0,99,90,67,0.00,40.00,9,4,14,0.00
2013-8-8,85.0,73.7,68.0,71.0,69.1,67.0,99,87,57,0.00,40.00,9,3,14,0.00
2013-8-9,82.0,71.2,66.0,70.0,66.9,64.0,99,88,60,0.00,40.00,6,2,9,0.00
2013-8-10,66.0,64.5,64.0,66.0,63.8,63.0,98,98,98,0.00,40.00,3,2,6,0.00